This is an optional block. Switch it on/off in your settings-file: $SITE['bannerTop'] = false; or $SITE['bannerBottom'] = false;

You can display ads, any other important text or photo’s using text / html or PHP code.

You can place one or more at the top and or bottom and it can all be different for content / size .



Lozoyuela more information Lozoyuela


Meteosat more information blitzortung!


Radar lluvias more information rain snow radar



Informes METAR proximidad

   
LEXJ - Santander/Parayas, Spain
Distancia hasta la estación: ESE 6 km
Actualización: 21-11-2018 16:30
Parcialmente Nublado  
Parcialmente Nublado  
   Viento: SSW 24.1 km/h<br />Gust to 24.1 km/h
Viento: SSW 24.1 km/h
Gust to 24.1 km/h
Temperatura: 15°C
Punto de rocío: 6°C
Humedad: 55%
Baromètro: 1006 hPa
Nublado: Partly Cloudy
Visibilidad: More than 10 km
detalles de la nube: Parcialmente Nublado 7400 ft
LEXJ 211530Z 20013G23KT 160V240 9999 SCT074 15/06 Q1006
LEBB - Bilbao/Sondica, Spain
Distancia hasta la estación: ESE 80 km
Actualización: 21-11-2018 16:30
Nubes dispersas  
Nubes dispersas  
   Viento: varía 13 km/h
Viento: varía 13 km/h
Temperatura: 15°C
Punto de rocío: 6°C
Humedad: 55%
Baromètro: 1008 hPa
Nublado: Few Clouds
Visibilidad: More than 10 km
detalles de la nube: Nubes dispersas 4500 ft
LEBB 211530Z VRB07KT 9999 FEW045 15/06 Q1008 NOSIG
LEBL - Barcelona Airpor, Spain
Distancia hasta la estación: ESE 554 km
Actualización: 21-11-2018 16:30
Nubes dispersas  
Nubes dispersas  
   Viento: WSW 24.1 km/h
Viento: WSW 24.1 km/h
Temperatura: 17°C
Punto de rocío: 10°C
Humedad: 64%
Baromètro: 1011 hPa
Nublado: Few Clouds
Visibilidad: More than 10 km
detalles de la nube: Nubes dispersas 3000 ft
LEBL 211530Z 24013KT 9999 FEW030 17/10 Q1011 NOSIG
LEMD - Madrid/Barajas, Spain
Distancia hasta la estación: S 325 km
Actualización: 21-11-2018 16:51
Lluvias, Lluvia, Parcialmente Nublado  
Lluvias, Lluvia, Parcialmente Nublado  
   Viento: WSW 13 km/h
Viento: WSW 13 km/h
Temperatura: 11°C
Punto de rocío: 7°C
Humedad: 77%
Baromètro: 1012 hPa
Nublado: Partly Cloudy
Visibilidad: More than 10 km
detalles de la nube: Nubes dispersas 3000 ft,
Parcialmente Nublado 6000 ft
LEMD 211551Z 24007KT 9999 SHRA FEW030TCU SCT060 11/07 Q1012 TEMPO NSW
LPPT - Lisbon/Portela, Portugal
Distancia hasta la estación: SW 663 km
Actualización: 21-11-2018 16:30
Nubes dispersas  
Nubes dispersas  
   Viento: SW 25.9 km/h
Viento: SW 25.9 km/h
Temperatura: 15°C
Punto de rocío: 7°C
Humedad: 59%
Baromètro: 1011 hPa
Nublado: Few Clouds
Visibilidad: More than 10 km
detalles de la nube: Nubes dispersas 3300 ft,
Nubes dispersas 3500 ft
LPPT 211530Z 23014KT 9999 FEW033 FEW035TCU 15/07 Q1011
LECO - La Coruna/Alvedr, Spain
Distancia hasta la estación: W 349 km
Actualización: 21-11-2018 16:30
Parcialmente Nublado  
Parcialmente Nublado  
   Viento: SSW 11.1 km/h
Viento: SSW 11.1 km/h
Temperatura: 13°C
Punto de rocío: 8°C
Humedad: 72%
Baromètro: 1005 hPa
Nublado: Partly Cloudy
Visibilidad: More than 10 km
detalles de la nube: Nubes dispersas 3000 ft,
Parcialmente Nublado 3500 ft
LECO 211530Z 21006KT 160V240 9999 FEW030TCU SCT035 13/08 Q1005 NOSIG
LEST - Santiago/Labacol, Spain
Distancia hasta la estación: W 358 km
Actualización: 21-11-2018 16:30
Light Showers, Lluvia, Parcialmente nublado  
Light Showers, Lluvia, Parcialmente nublado  
   Viento: S 24.1 km/h
Viento: S 24.1 km/h
Temperatura: 8°C
Térmica: 4°C
Punto de rocío: 7°C
Humedad: 93%
Baromètro: 1006 hPa
Nublado: Mostly Cloudy
Visibilidad: 9 km
detalles de la nube: Nubes dispersas 1400 ft,
Nubes dispersas 2400 ft,
Parcialmente nublado 3600 ft
LEST 211530Z 18013KT 9000 -SHRA FEW014 FEW024CB BKN036 08/07 Q1006 TEMPO 3000 SHRA
EBBR - Brussels International Airport, Belgium
Distancia hasta la estación: W 14 km
Actualización: 21-11-2018 16:20
Parcialmente Nublado  
Parcialmente Nublado  
   Viento: NE 9.3 km/h
Viento: NE 9.3 km/h
Temperatura: 6°C
Térmica: 4°C
Punto de rocío: 3°C
Humedad: 81%
Baromètro: 1016 hPa
Nublado: Partly Cloudy
Visibilidad: 7 km
detalles de la nube: Parcialmente Nublado ft
EBBR 211520Z 05005KT 7000 NSC 06/03 Q1016 NOSIG
EBBE - Beauvechain (Bevekom), Belgium
Distancia hasta la estación: SSE 17 km
Actualización: 21-11-2018 16:49
Parcialmente nublado  
Parcialmente nublado  
   Viento: NE 11.1 km/h
Viento: NE 11.1 km/h
Temperatura: 5°C
Térmica: 2°C
Punto de rocío: 2°C
Humedad: 81%
Baromètro: 1016 hPa
Nublado: Mostly Cloudy
Visibilidad: More than 10 km
detalles de la nube: Parcialmente nublado 5000 ft
EBBE 211549Z 04006KT 9999 BKN050 05/02 Q1016 BLU FCST CANCEL
EBDT - Schaffen, Belgium
Distancia hasta la estación: ENE 29 km
Actualización: 21-11-2018 16:25
Parcialmente nublado  
Parcialmente nublado  
   Viento: ENE 11.1 km/h
Viento: ENE 11.1 km/h
Temperatura: 5°C
Térmica: 2°C
Punto de rocío: 1°C
Humedad: 76%
Baromètro: 1017 hPa
Nublado: Mostly Cloudy
Visibilidad: 8 km
detalles de la nube: Parcialmente Nublado 6000 ft,
Parcialmente nublado 9000 ft
EBDT 211525Z 06006KT 8000 SCT060 BKN090 05/01 Q1017 BLU BLU
EBAW - Antwerp/Deurne, Belgium
Distancia hasta la estación: NNW 38 km
Actualización: 21-11-2018 16:20
Despejado  
Despejado  
   Viento: NE 13 km/h
Viento: NE 13 km/h
Visibilidad: More than 10 km
detalles de la nube: Despejado ft
EBAW 211520Z 05007KT CAVOK 06/// Q1017 NOSIG
EBCI - Charleroi/Gosselies, Belgium
Distancia hasta la estación: SSW 51 km
Actualización: 21-11-2018 16:20
Parcialmente nublado  
Parcialmente nublado  
   Viento: ENE 11.1 km/h
Viento: ENE 11.1 km/h
Temperatura: 5°C
Térmica: 2°C
Punto de rocío: 2°C
Humedad: 81%
Baromètro: 1015 hPa
Nublado: Mostly Cloudy
Visibilidad: More than 10 km
detalles de la nube: Nubes dispersas 3000 ft,
Parcialmente nublado 4500 ft
EBCI 211520Z 06006KT 9999 FEW030 BKN045 05/02 Q1015 NOSIG
EBLG - Bierset/Liege, Belgium
Distancia hasta la estación: ESE 60 km
Actualización: 21-11-2018 16:20
Despejado  
Despejado  
   Viento: NNE 11.1 km/h
Viento: NNE 11.1 km/h
Temperatura: 4°C
Térmica: 1°C
Punto de rocío: 1°C
Humedad: 81%
Baromètro: 1016 hPa
Visibilidad: More than 10 km
detalles de la nube: Despejado ft
EBLG 211520Z 03006KT CAVOK 04/01 Q1016 NOSIG
  

Guión original por  Saratoga-weather.org Adaptado para la plantilla por  Weerstation Leuven

Usted encontrará nuestra información del tiempo también en:

UK Metoffice

Weather Underground

Equipo utilizado:

Weather-station
Davis VP2

Weather-program
Weather Display

Weather-server
My Computer

Proveedor
My provider

Davis VP2

Weather Display

My Computer

My provider